Time;durP1;ratioP1;P1;durP2;ratioP2;P2;SDS_P1;SDS_P2;PMS_P1;PMS_P2;Temp;Humidity;BMP_temperature;BMP_pressure;BME280_temperature;BME280_humidity;BME280_pressure;Samples;Min_cycle;Max_cycle;Signal;HPM_P1;HPM_P2
2022/04/23 00:01:38;;;;;;;7.80;6.30;;;;;;;9.39;79.65;98038.27;104984;1270;61090;-26
2022/04/23 00:04:11;;;;;;;11.90;7.40;;;;;;;9.17;80.39;98037.39;104941;1270;61427;-26
2022/04/23 00:06:40;;;;;;;8.30;6.20;;;;;;;9.00;81.19;98036.31;104948;1270;74492;-26
2022/04/23 00:09:11;;;;;;;14.10;7.90;;;;;;;9.36;80.52;98036.02;105133;1269;75737;-29
2022/04/23 00:11:40;;;;;;;9.50;6.80;;;;;;;9.59;79.50;98035.39;105138;1270;74466;-27
2022/04/23 00:14:13;;;;;;;12.30;7.50;;;;;;;9.48;79.47;98040.41;105132;1270;61109;-27
2022/04/23 00:16:41;;;;;;;7.50;6.00;;;;;;;9.25;80.09;98042.13;104983;1270;61199;-27
2022/04/23 00:19:11;;;;;;;7.50;5.80;;;;;;;9.07;80.96;98033.90;105129;1269;75518;-27
2022/04/23 00:21:40;;;;;;;11.40;6.60;;;;;;;9.39;80.44;98032.23;104993;1270;75968;-27
2022/04/23 00:24:10;;;;;;;6.40;4.10;;;;;;;9.61;79.30;98029.80;104789;1270;73955;-27
2022/04/23 00:26:41;;;;;;;9.60;6.20;;;;;;;9.48;79.38;98027.73;104865;1270;62222;-27
2022/04/23 00:29:09;;;;;;;10.20;7.30;;;;;;;9.30;80.08;98029.63;104875;1270;61131;-27
2022/04/23 00:31:42;;;;;;;8.40;5.60;;;;;;;9.19;80.69;98035.23;104951;1270;75355;-27
2022/04/23 00:34:14;;;;;;;8.10;5.00;;;;;;;9.53;80.12;98031.32;104946;1270;75836;-27
2022/04/23 00:36:44;;;;;;;12.00;7.10;;;;;;;9.65;79.36;98035.17;104887;1270;74374;-27
2022/04/23 00:39:13;;;;;;;9.40;5.70;;;;;;;9.56;79.26;98036.34;104921;1270;61039;-27
2022/04/23 00:41:45;;;;;;;7.90;5.80;;;;;;;9.31;79.96;98035.94;104913;1270;61065;-27
2022/04/23 00:44:14;;;;;;;6.00;5.00;;;;;;;9.16;81.07;98029.53;104833;1270;75362;-26
2022/04/23 00:46:44;;;;;;;6.40;5.40;;;;;;;9.59;79.97;98021.69;104701;1273;76368;-26
2022/04/23 00:49:16;;;;;;;6.60;4.90;;;;;;;9.81;78.84;98017.57;104700;1271;73234;-27
2022/04/23 00:51:44;;;;;;;11.60;6.10;;;;;;;9.67;78.95;98009.59;104921;1270;61114;-27
2022/04/23 00:54:13;;;;;;;9.70;6.10;;;;;;;9.43;79.71;98002.92;104958;1270;61772;-27
2022/04/23 00:56:42;;;;;;;10.50;5.90;;;;;;;9.22;80.48;98007.67;104928;1270;75006;-27
2022/04/23 00:59:11;;;;;;;8.90;5.80;;;;;;;9.55;80.08;98009.06;104842;1271;75831;-27
2022/04/23 01:01:40;;;;;;;9.40;5.70;;;;;;;9.78;78.72;98007.98;104787;1270;72203;-27
2022/04/23 01:04:12;;;;;;;9.60;6.00;;;;;;;9.70;78.75;98014.65;104931;1270;62134;-27
2022/04/23 01:06:43;;;;;;;9.60;6.50;;;;;;;9.48;79.32;98028.48;105042;1271;61717;-27
2022/04/23 01:09:12;;;;;;;7.30;5.30;;;;;;;9.26;80.01;98032.14;104943;1270;74424;-27
2022/04/23 01:11:42;;;;;;;7.50;5.30;;;;;;;9.28;80.59;98023.39;104887;1270;75927;-27
2022/04/23 01:14:11;;;;;;;6.90;4.90;;;;;;;9.71;79.24;98012.42;104957;1270;74233;-27
2022/04/23 01:16:39;;;;;;;7.30;4.80;;;;;;;9.77;78.62;98014.64;104988;1270;61353;-27
2022/04/23 01:19:09;;;;;;;8.50;6.20;;;;;;;9.62;79.01;98012.91;105068;1270;61158;-27
2022/04/23 01:21:39;;;;;;;11.60;6.20;;;;;;;9.40;79.46;98015.70;104887;1270;76131;-27
2022/04/23 01:24:08;;;;;;;7.70;4.60;;;;;;;9.22;80.26;98007.84;105040;1270;75950;-26
2022/04/23 01:26:36;;;;;;;8.50;5.60;;;;;;;9.55;79.89;98002.03;104751;1270;370567;-26
2022/04/23 01:29:07;;;;;;;8.40;6.40;;;;;;;9.82;78.78;98003.84;105117;1270;61125;-26
2022/04/23 01:31:36;;;;;;;8.60;5.80;;;;;;;9.72;78.66;98003.73;105121;1270;61219;-26
2022/04/23 01:34:05;;;;;;;8.70;6.40;;;;;;;9.46;79.37;97995.38;104929;1270;75627;-26
2022/04/23 01:36:35;;;;;;;8.70;5.00;;;;;;;9.19;80.43;97999.04;104931;1270;73941;-26
2022/04/23 01:39:04;;;;;;;8.50;6.20;;;;;;;9.45;79.99;98001.14;104906;1270;74364;-26
2022/04/23 01:41:33;;;;;;;11.90;7.70;;;;;;;9.67;79.04;97999.13;104928;1270;61118;-26
2022/04/23 01:44:05;;;;;;;10.20;6.50;;;;;;;9.60;79.00;97997.23;104893;1270;61175;-26
2022/04/23 01:46:34;;;;;;;9.60;6.60;;;;;;;9.37;79.64;97997.57;104961;1270;75375;-26
2022/04/23 01:49:02;;;;;;;9.20;5.20;;;;;;;9.12;80.53;98001.77;104922;1270;74567;-26
2022/04/23 01:51:33;;;;;;;7.80;6.00;;;;;;;9.11;81.30;98001.48;104883;1270;74427;-26
2022/04/23 01:54:01;;;;;;;10.60;6.20;;;;;;;9.54;80.06;97990.50;104920;1270;61154;-26
2022/04/23 01:56:30;;;;;;;10.80;6.70;;;;;;;9.57;79.07;97988.62;104887;1270;61157;-26
2022/04/23 01:59:00;;;;;;;11.90;6.90;;;;;;;9.34;79.87;97984.86;104903;1270;74551;-26
2022/04/23 02:01:28;;;;;;;8.60;6.00;;;;;;;9.13;80.50;97983.20;104925;1270;75604;-27
2022/04/23 02:03:59;;;;;;;9.00;7.60;;;;;;;9.07;81.23;97971.66;104953;1270;74483;-26
2022/04/23 02:06:30;;;;;;;5.90;4.60;;;;;;;9.50;79.99;97970.44;104715;1270;62077;-26
2022/04/23 02:09:00;;;;;;;11.10;7.50;;;;;;;9.57;79.27;97963.66;104983;1270;61068;-26
2022/04/23 02:11:32;;;;;;;12.00;9.00;;;;;;;9.36;79.62;97954.92;104770;1270;75496;-26
2022/04/23 02:14:04;;;;;;;14.40;7.80;;;;;;;9.14;80.25;97954.88;104957;1270;75597;-26
2022/04/23 02:16:32;;;;;;;11.30;7.10;;;;;;;8.96;80.94;97952.83;104909;1270;74420;-26
2022/04/23 02:19:03;;;;;;;10.40;7.40;;;;;;;9.30;80.46;97956.98;105061;1270;61140;-26
2022/04/23 02:21:33;;;;;;;14.50;9.00;;;;;;;9.56;79.22;97955.11;105146;1270;61846;-26
2022/04/23 02:24:04;;;;;;;14.00;8.10;;;;;;;9.51;78.99;97952.29;105145;1270;75561;-27
2022/04/23 02:26:33;;;;;;;14.10;8.50;;;;;;;9.27;79.75;97951.79;104799;1270;75184;-28
2022/04/23 02:29:05;;;;;;;9.50;6.70;;;;;;;9.06;80.60;97949.73;104952;1270;74430;-27
2022/04/23 02:31:34;;;;;;;11.20;6.20;;;;;;;9.28;80.33;97939.48;104967;1271;62269;-27
2022/04/23 02:34:03;;;;;;;10.60;8.00;;;;;;;9.50;79.16;97933.52;104910;1270;61067;-27
2022/04/23 02:36:31;;;;;;;14.70;9.10;;;;;;;9.40;79.27;97929.04;104744;1271;75091;-26
2022/04/23 02:39:01;;;;;;;10.60;7.40;;;;;;;9.19;79.93;97925.35;104968;1270;75864;-26
2022/04/23 02:41:31;;;;;;;15.70;8.00;;;;;;;8.95;80.62;97921.81;104924;1270;73513;-27
2022/04/23 02:44:03;;;;;;;14.20;8.20;;;;;;;9.01;81.13;97918.80;104898;1270;61496;-26
2022/04/23 02:46:32;;;;;;;16.30;9.90;;;;;;;9.41;79.75;97919.60;104792;1271;61776;-26
2022/04/23 02:49:02;;;;;;;14.60;8.40;;;;;;;9.45;79.15;97928.80;104947;1271;75378;-26
2022/04/23 02:51:33;;;;;;;14.80;9.70;;;;;;;9.24;79.56;97930.20;105022;1270;75849;-26
2022/04/23 02:54:01;;;;;;;16.60;10.70;;;;;;;9.05;80.22;97934.27;105009;1270;74210;-26
2022/04/23 02:56:47;;;;;;;15.50;8.20;;;;;;;8.96;80.92;97931.20;104888;1270;62915;-25
2022/04/23 02:59:16;;;;;;;17.30;10.40;;;;;;;9.35;79.87;97932.20;104921;1270;61119;-25
2022/04/23 03:01:45;;;;;;;17.50;10.50;;;;;;;9.46;79.11;97925.96;104843;1271;74446;-25
2022/04/23 03:04:17;;;;;;;14.90;9.90;;;;;;;9.28;79.65;97921.41;104911;1270;75686;-25
2022/04/23 03:06:47;;;;;;;18.00;8.80;;;;;;;9.03;80.10;97919.02;104747;1271;74437;-25
2022/04/23 03:09:16;;;;;;;18.10;11.50;;;;;;;8.94;80.70;97916.90;104770;1271;63753;-25
2022/04/23 03:11:48;;;;;;;19.40;11.30;;;;;;;9.26;79.84;97918.57;104954;1270;61147;-25
2022/04/23 03:14:19;;;;;;;19.90;11.40;;;;;;;9.32;79.19;97918.21;105013;1270;74704;-26
2022/04/23 03:16:48;;;;;;;20.40;11.40;;;;;;;9.16;79.67;97916.10;104935;1270;75785;-25
2022/04/23 03:19:16;;;;;;;15.70;8.40;;;;;;;8.94;80.23;97912.34;104960;1270;74502;-25
2022/04/23 03:21:47;;;;;;;18.50;10.40;;;;;;;9.05;80.56;97914.86;104741;1270;61159;-25
2022/04/23 03:24:16;;;;;;;16.20;9.50;;;;;;;9.39;79.27;97911.98;104822;1271;62095;-26
2022/04/23 03:26:46;;;;;;;18.00;11.30;;;;;;;9.36;79.05;97909.54;104955;1270;76952;-26
2022/04/23 03:29:14;;;;;;;23.50;11.20;;;;;;;9.11;79.50;97903.00;105008;1271;76133;-26
2022/04/23 03:31:44;;;;;;;18.50;8.90;;;;;;;8.86;80.35;97899.44;104968;1270;73360;-26
2022/04/23 03:34:14;;;;;;;10.70;7.00;;;;;;;8.97;80.62;97898.80;104624;1273;61052;-26
2022/04/23 03:36:44;;;;;;;17.20;10.80;;;;;;;9.25;79.45;97894.95;105025;1270;61147;-26
2022/04/23 03:39:13;;;;;;;18.20;10.90;;;;;;;9.25;79.09;97895.16;104835;1271;75660;-26
2022/04/23 03:41:43;;;;;;;14.50;10.40;;;;;;;9.04;79.50;97898.98;104749;1271;75809;-26
2022/04/23 03:44:12;;;;;;;18.50;10.70;;;;;;;8.82;80.47;97898.08;104885;1271;74413;-26
2022/04/23 03:46:42;;;;;;;15.80;9.00;;;;;;;9.03;80.42;97901.30;104924;1270;61469;-26
2022/04/23 03:49:12;;;;;;;22.90;11.10;;;;;;;9.25;79.25;97905.17;104877;1270;62098;-26
2022/04/23 03:51:41;;;;;;;17.10;10.00;;;;;;;9.22;79.21;97908.09;105112;1270;75361;-26
2022/04/23 03:54:10;;;;;;;18.30;9.70;;;;;;;9.05;79.67;97906.36;105095;1270;76134;-26
2022/04/23 03:56:41;;;;;;;14.90;8.80;;;;;;;8.84;80.45;97908.08;104882;1270;74158;-28
2022/04/23 03:59:14;;;;;;;13.30;9.70;;;;;;;9.16;80.21;97907.02;104914;1270;62376;-28
2022/04/23 04:01:45;;;;;;;18.00;8.60;;;;;;;9.46;79.15;97905.49;104950;1270;61125;-25
2022/04/23 04:04:15;;;;;;;13.40;9.50;;;;;;;9.36;78.95;97900.00;105021;1271;75442;-25
2022/04/23 04:06:47;;;;;;;20.30;8.30;;;;;;;9.11;79.63;97900.07;104931;1270;76020;-26
2022/04/23 04:09:16;;;;;;;15.70;8.80;;;;;;;8.86;80.57;97893.23;104835;1268;74236;-25
2022/04/23 04:12:03;;;;;;;15.10;8.80;;;;;;;9.13;80.36;97888.64;104943;1270;61084;-25
2022/04/23 04:14:36;;;;;;;14.90;8.80;;;;;;;9.40;79.30;97890.41;104901;1271;61131;-25
2022/04/23 04:17:10;;;;;;;15.50;8.90;;;;;;;9.27;79.26;97888.36;104912;1270;74539;-25
2022/04/23 04:19:39;;;;;;;14.00;8.50;;;;;;;9.00;80.08;97886.02;104705;1271;74947;-25
2022/04/23 04:22:10;;;;;;;12.30;7.90;;;;;;;8.79;81.13;97883.27;104887;1269;74110;-25
2022/04/23 04:24:39;;;;;;;13.90;8.50;;;;;;;9.14;80.67;97883.19;104936;1270;61215;-25
2022/04/23 04:27:09;;;;;;;12.00;8.10;;;;;;;9.34;79.62;97882.11;104697;1271;62735;-27
2022/04/23 04:29:39;;;;;;;14.20;9.40;;;;;;;9.28;79.76;97883.47;104965;1270;75418;-25
2022/04/23 04:32:08;;;;;;;11.90;8.90;;;;;;;9.02;80.25;97884.94;105005;1271;75991;-25
2022/04/23 04:34:37;;;;;;;14.80;8.80;;;;;;;8.80;81.19;97881.67;104948;1270;74197;-26
2022/04/23 04:37:10;;;;;;;17.30;9.20;;;;;;;9.11;80.87;97880.88;104941;1270;61208;-27
2022/04/23 04:39:43;;;;;;;13.90;9.20;;;;;;;9.37;79.71;97881.23;104646;1271;61227;-27
2022/04/23 04:42:12;;;;;;;13.50;7.80;;;;;;;9.26;79.75;97880.86;104949;1270;75502;-27
2022/04/23 04:44:40;;;;;;;16.10;10.70;;;;;;;8.99;80.43;97876.79;105007;1270;76038;-26
2022/04/23 04:47:10;;;;;;;14.90;8.40;;;;;;;8.80;81.51;97876.84;104907;1270;74382;-27
2022/04/23 04:49:40;;;;;;;12.20;8.20;;;;;;;9.13;81.02;97869.61;104944;1270;61280;-26
2022/04/23 04:52:08;;;;;;;12.50;9.00;;;;;;;9.32;80.00;97862.06;104973;1270;62263;-28
2022/04/23 04:54:41;;;;;;;15.10;9.00;;;;;;;9.20;80.30;97857.88;104913;1270;75515;-25
2022/04/23 04:57:10;;;;;;;12.30;8.50;;;;;;;8.94;81.23;97852.70;104788;1271;75706;-26
2022/04/23 04:59:40;;;;;;;12.10;7.80;;;;;;;8.81;82.28;97853.30;104918;1271;74494;-25
2022/04/23 05:02:11;;;;;;;9.90;7.10;;;;;;;9.20;81.33;97852.86;104918;1270;61159;-25
2022/04/23 05:04:42;;;;;;;18.80;10.70;;;;;;;9.27;80.52;97852.55;104958;1271;61077;-25
2022/04/23 05:07:11;;;;;;;13.70;9.50;;;;;;;9.15;80.84;97853.11;104966;1271;75493;-25
2022/04/23 05:09:42;;;;;;;9.40;6.90;;;;;;;8.95;81.38;97851.88;105114;1270;76145;-26
2022/04/23 05:12:12;;;;;;;10.70;7.90;;;;;;;8.89;82.23;97851.19;104938;1270;74857;-27
2022/04/23 05:14:45;;;;;;;13.30;9.10;;;;;;;9.28;80.97;97850.38;104652;1274;61801;-26
2022/04/23 05:17:18;;;;;;;12.60;8.00;;;;;;;9.35;80.48;97852.47;104812;1274;62046;-26
2022/04/23 05:19:48;;;;;;;13.90;7.70;;;;;;;9.18;80.83;97847.80;104803;1274;75551;-26
2022/04/23 05:22:18;;;;;;;7.50;6.20;;;;;;;8.98;81.46;97850.77;104764;1271;75995;-26
2022/04/23 05:24:47;;;;;;;9.70;6.80;;;;;;;9.04;82.10;97852.08;104738;1272;74212;-25
2022/04/23 05:27:17;;;;;;;11.00;7.60;;;;;;;9.42;80.85;97851.15;104766;1272;61077;-26
2022/04/23 05:29:46;;;;;;;9.60;5.90;;;;;;;9.44;80.49;97852.64;104762;1274;61190;-27
2022/04/23 05:32:14;;;;;;;10.20;7.00;;;;;;;9.26;80.79;97848.84;104942;1271;75407;-28
2022/04/23 05:34:43;;;;;;;12.60;7.40;;;;;;;9.00;81.88;97840.99;104812;1272;75839;-27
2022/04/23 05:37:19;;;;;;;9.20;5.70;;;;;;;9.29;81.34;97842.83;104770;1274;74336;-28
2022/04/23 05:39:49;;;;;;;17.10;8.50;;;;;;;9.50;80.38;97838.39;104847;1271;61142;-26
2022/04/23 05:42:17;;;;;;;16.90;9.20;;;;;;;9.41;80.71;97844.42;104899;1274;61172;-27
2022/04/23 05:44:47;;;;;;;12.80;9.30;;;;;;;9.22;81.25;97847.66;104728;1274;75670;-26
2022/04/23 05:47:16;;;;;;;13.90;7.60;;;;;;;9.12;81.98;97845.96;104915;1271;75888;-26
2022/04/23 05:49:45;;;;;;;11.60;7.10;;;;;;;9.55;80.77;97844.33;104813;1274;74468;-25
2022/04/23 05:52:25;;;;;;;12.20;7.10;;;;;;;9.72;79.96;97840.27;104815;1274;61159;-26
2022/04/23 05:54:53;;;;;;;15.50;8.30;;;;;;;9.58;79.68;97841.76;104842;1274;61130;-26
2022/04/23 05:57:26;;;;;;;12.50;7.70;;;;;;;9.36;80.69;97838.02;104705;1272;75011;-27
2022/04/23 05:59:56;;;;;;;14.20;7.60;;;;;;;9.18;81.61;97837.14;104791;1272;76100;-26
2022/04/23 06:02:26;;;;;;;12.10;7.20;;;;;;;9.49;80.82;97839.73;104947;1271;73278;-26
2022/04/23 06:04:59;;;;;;;11.40;7.60;;;;;;;9.67;79.62;97838.20;104752;1272;61029;-26
2022/04/23 06:07:32;;;;;;;11.90;6.50;;;;;;;9.45;79.90;97840.23;104799;1273;61753;-26
2022/04/23 06:10:03;;;;;;;9.80;5.70;;;;;;;9.21;80.99;97838.77;104928;1271;75577;-27
2022/04/23 06:12:34;;;;;;;13.60;7.90;;;;;;;9.12;81.81;97835.61;104632;1275;76023;-27
2022/04/23 06:15:04;;;;;;;8.40;6.10;;;;;;;9.51;80.68;97830.67;104674;1274;74514;-27
2022/04/23 06:17:34;;;;;;;10.50;5.80;;;;;;;9.54;79.45;97821.58;104665;1272;61930;-27
2022/04/23 06:20:05;;;;;;;10.30;6.40;;;;;;;9.33;79.52;97829.06;104818;1271;61131;-27
2022/04/23 06:22:35;;;;;;;9.80;6.10;;;;;;;9.08;80.54;97834.04;104583;1275;75998;-27
2022/04/23 06:25:06;;;;;;;13.80;5.80;;;;;;;9.11;80.59;97832.03;104807;1271;76201;-25
2022/04/23 06:27:37;;;;;;;11.40;7.10;;;;;;;9.36;79.58;97830.33;104689;1274;74468;-26
2022/04/23 06:30:09;;;;;;;9.40;7.00;;;;;;;9.29;79.57;97833.25;104679;1271;61781;-26
2022/04/23 06:32:38;;;;;;;11.30;7.20;;;;;;;9.07;79.95;97832.73;104652;1275;62436;-26
2022/04/23 06:35:07;;;;;;;11.40;5.30;;;;;;;8.96;80.65;97838.41;104741;1272;74531;-27
2022/04/23 06:37:42;;;;;;;10.90;5.30;;;;;;;9.29;79.78;97842.61;104724;1271;75733;-27
2022/04/23 06:40:12;;;;;;;13.20;6.60;;;;;;;9.36;78.93;97844.23;104796;1273;74471;-27
2022/04/23 06:42:44;;;;;;;14.50;5.50;;;;;;;9.17;79.49;97851.21;104943;1273;61087;-27
2022/04/23 06:45:13;;;;;;;4.90;3.80;;;;;;;8.93;80.08;97855.91;105048;1272;61150;-28
2022/04/23 06:47:46;;;;;;;8.80;4.80;;;;;;;8.97;80.22;97858.61;105009;1271;75541;-25
2022/04/23 06:50:15;;;;;;;7.80;5.10;;;;;;;9.31;78.91;97861.33;105026;1274;76051;-26
2022/04/23 06:52:45;;;;;;;11.60;5.60;;;;;;;9.36;78.85;97870.54;104790;1271;74457;-25
2022/04/23 06:55:14;;;;;;;8.30;4.90;;;;;;;9.21;78.78;97872.80;104775;1271;62053;-26
2022/04/23 06:57:44;;;;;;;13.00;4.40;;;;;;;8.91;79.09;97871.09;104926;1271;61156;-25
2022/04/23 07:00:15;;;;;;;6.60;4.00;;;;;;;9.16;79.58;97869.29;104776;1271;75536;-24
2022/04/23 07:02:51;;;;;;;14.90;5.40;;;;;;;9.46;77.59;97864.63;104673;1274;75996;-24
2022/04/23 07:05:21;;;;;;;9.40;4.90;;;;;;;9.36;77.81;97870.02;104733;1273;74441;-24
2022/04/23 07:07:58;;;;;;;6.80;3.50;;;;;;;9.11;78.19;97870.66;104766;1271;62133;-24
2022/04/23 07:10:28;;;;;;;9.90;4.10;;;;;;;8.90;78.70;97871.60;104512;1271;61941;-24
2022/04/23 07:12:57;;;;;;;11.20;4.90;;;;;;;9.08;79.16;97874.94;104656;1274;75327;-24
2022/04/23 07:15:28;;;;;;;7.10;4.50;;;;;;;9.30;77.74;97873.70;104752;1274;74833;-24
2022/04/23 07:17:57;;;;;;;8.60;4.20;;;;;;;9.24;77.31;97869.40;104754;1272;74567;-24
2022/04/23 07:20:26;;;;;;;12.40;5.90;;;;;;;9.02;77.90;97875.11;104762;1274;61201;-24
2022/04/23 07:25:42;;;;;;;12.40;4.90;;;;;;;9.23;78.07;97877.65;104903;1271;75841;-24
2022/04/23 07:28:15;;;;;;;9.70;4.70;;;;;;;9.57;76.98;97879.46;104761;1271;76006;-24
2022/04/23 07:30:44;;;;;;;9.60;5.00;;;;;;;9.53;76.82;97879.65;104914;1271;74559;-24
2022/04/23 07:37:28;;;;;;;10.00;4.80;;;;;;;9.35;77.46;97875.67;104768;1274;61167;-24
2022/04/23 07:38:49;;;;;;;6.80;4.40;;;;;;;8.94;78.47;97871.16;104806;1271;75821;-24
2022/04/23 07:41:18;;;;;;;9.70;4.80;;;;;;;9.31;77.64;97873.80;104893;1271;75910;-24
2022/04/23 07:43:47;;;;;;;7.00;4.60;;;;;;;9.46;76.93;97876.20;104899;1271;73196;-24
2022/04/23 07:46:17;;;;;;;9.00;5.00;;;;;;;9.38;77.43;97879.20;105027;1270;61868;-23
2022/04/23 07:48:47;;;;;;;8.10;5.10;;;;;;;9.24;77.69;97876.17;104871;1271;61241;-26
2022/04/23 07:51:16;;;;;;;8.10;4.10;;;;;;;9.07;78.50;97879.13;104927;1271;75508;-26
2022/04/23 07:53:44;;;;;;;8.80;5.20;;;;;;;9.29;77.97;97872.94;104807;1271;76068;-24
2022/04/23 07:56:17;;;;;;;5.90;4.10;;;;;;;9.53;77.44;97877.92;104744;1272;74353;-25
2022/04/23 07:58:46;;;;;;;9.90;5.20;;;;;;;9.34;77.37;97879.09;105096;1271;61082;-25
2022/04/23 08:01:16;;;;;;;4.50;3.40;;;;;;;9.01;78.49;97875.58;104907;1271;61382;-25
2022/04/23 08:03:45;;;;;;;5.50;2.90;;;;;;;8.98;79.03;97878.09;104882;1271;75379;-25
2022/04/23 08:06:14;;;;;;;10.20;4.00;;;;;;;9.25;78.31;97878.67;104783;1271;74978;-25
2022/04/23 08:08:44;;;;;;;10.10;5.00;;;;;;;9.58;76.82;97883.51;104855;1271;74481;-25
2022/04/23 08:11:13;;;;;;;8.70;5.00;;;;;;;9.41;77.18;97885.56;104963;1270;61058;-24
2022/04/23 08:13:43;;;;;;;9.40;4.70;;;;;;;9.26;77.40;97879.23;104778;1273;61035;-25
2022/04/23 08:16:12;;;;;;;7.80;4.10;;;;;;;8.97;78.39;97881.98;104887;1271;75351;-25
2022/04/23 08:18:41;;;;;;;6.60;3.80;;;;;;;8.97;79.25;97885.25;104891;1270;76038;-26
2022/04/23 08:21:16;;;;;;;11.50;5.10;;;;;;;9.43;77.53;97884.84;104839;1271;74390;-25
2022/04/23 08:23:45;;;;;;;11.00;5.10;;;;;;;9.48;77.33;97880.29;104922;1270;61823;-25
2022/04/23 08:26:14;;;;;;;14.50;4.80;;;;;;;9.39;77.62;97874.45;104913;1270;61202;-25
2022/04/23 08:31:32;;;;;;;12.10;4.30;;;;;;;8.94;79.01;97866.82;105118;1271;75088;-26
2022/04/23 08:34:01;;;;;;;12.80;8.10;;;;;;;9.49;78.11;97870.52;105098;1270;74148;-26
2022/04/23 08:36:36;;;;;;;11.40;6.30;;;;;;;9.63;77.62;97871.11;105170;1270;61834;-29
2022/04/23 08:39:06;;;;;;;11.80;6.50;;;;;;;9.48;77.87;97876.16;105084;1271;61060;-28
2022/04/23 08:41:36;;;;;;;9.60;5.20;;;;;;;9.29;78.40;97873.07;105071;1271;75497;-29
2022/04/23 08:44:09;;;;;;;7.40;3.70;;;;;;;9.16;79.05;97867.60;104881;1270;76519;-29
2022/04/23 08:46:39;;;;;;;7.40;3.80;;;;;;;9.60;78.58;97862.16;104892;1270;74416;-29
2022/04/23 08:49:17;;;;;;;13.00;4.10;;;;;;;10.00;77.43;97859.74;104893;1271;62174;-29
2022/04/23 08:51:53;;;;;;;10.20;6.10;;;;;;;9.97;76.42;97852.55;104703;1270;62110;-29
2022/04/23 08:54:24;;;;;;;12.10;6.50;;;;;;;9.75;76.88;97843.98;104665;1271;75297;-29
2022/04/23 08:56:55;;;;;;;11.40;5.20;;;;;;;9.52;78.11;97844.42;104902;1271;75478;-31
2022/04/23 08:59:24;;;;;;;6.00;4.00;;;;;;;9.56;79.08;97844.42;104900;1270;74467;-29
2022/04/23 09:01:57;;;;;;;;;;;;;;;10.16;78.14;97848.70;104873;1271;62170;-29
2022/04/23 09:04:26;;;;;;;9.60;5.00;;;;;;;10.43;77.56;97857.12;104960;1270;61023;-29
2022/04/23 09:07:00;;;;;;;6.80;4.20;;;;;;;10.38;76.97;97857.95;104898;1270;75461;-29
2022/04/23 09:09:32;;;;;;;8.70;3.80;;;;;;;10.14;77.21;97862.72;104838;1270;75863;-29
2022/04/23 09:12:01;;;;;;;6.60;3.30;;;;;;;9.91;78.00;97865.83;104881;1270;74572;-29
2022/04/23 09:14:33;;;;;;;13.30;4.00;;;;;;;10.24;77.67;97863.27;104894;1270;61093;-29
2022/04/23 09:25:35;;;;;;;9.80;4.60;;;;;;;10.04;77.49;97859.88;105066;1270;74413;-30
2022/04/23 09:28:26;;;;;;;10.40;3.50;;;;;;;9.95;78.38;97859.85;104729;1272;61543;-30
2022/04/23 09:30:59;;;;;;;8.00;3.80;;;;;;;10.60;76.99;97855.77;104778;1271;61015;-30
2022/04/23 09:33:46;;;;;;;9.30;4.70;;;;;;;10.88;75.33;97859.78;104822;1271;75516;-30
2022/04/23 09:36:15;;;;;;;10.30;4.30;;;;;;;10.76;75.05;97857.62;104756;1271;74951;-31
2022/04/23 09:38:44;;;;;;;8.50;4.40;;;;;;;10.55;75.79;97858.52;104918;1270;74242;-31
2022/04/23 09:41:19;;;;;;;11.70;4.80;;;;;;;10.29;76.37;97864.91;104874;1271;61084;-30
2022/04/23 09:43:50;;;;;;;8.20;3.20;;;;;;;10.24;77.35;97864.02;104853;1271;61155;-31
2022/04/23 09:46:19;;;;;;;10.60;4.30;;;;;;;10.78;76.47;97862.02;104715;1271;74597;-30
2022/04/23 09:49:02;;;;;;;10.50;4.70;;;;;;;10.98;76.06;97860.13;104936;1270;76678;-30
2022/04/23 09:51:31;;;;;;;8.40;4.60;;;;;;;10.89;75.54;97861.06;104787;1273;74218;-30
2022/04/23 09:53:59;;;;;;;9.70;4.80;;;;;;;10.69;76.16;97864.69;105001;1270;62053;-30
2022/04/23 09:56:28;;;;;;;12.50;5.80;;;;;;;10.49;76.99;97864.48;105015;1270;61418;-30
2022/04/23 09:58:57;;;;;;;9.60;4.30;;;;;;;10.38;77.48;97863.87;104887;1270;74631;-29
2022/04/23 10:01:28;;;;;;;10.50;4.70;;;;;;;10.90;76.74;97858.88;104919;1270;75905;-29
2022/04/23 10:03:57;;;;;;;8.60;4.20;;;;;;;11.42;75.52;97862.50;104761;1271;74560;-30
2022/04/23 10:06:26;;;;;;;9.00;4.20;;;;;;;11.45;74.49;97863.52;104908;1270;62077;-31
2022/04/23 10:08:57;;;;;;;10.30;5.20;;;;;;;11.29;74.92;97863.42;104672;1270;61196;-31
2022/04/23 10:11:29;;;;;;;10.00;4.50;;;;;;;11.08;75.10;97866.96;104786;1271;75593;-30
2022/04/23 10:14:06;;;;;;;9.30;5.00;;;;;;;10.87;75.10;97867.48;104733;1270;75891;-29
2022/04/23 10:16:36;;;;;;;6.80;3.80;;;;;;;10.76;75.80;97864.33;104863;1270;74536;-29
2022/04/23 10:19:07;;;;;;;8.80;4.10;;;;;;;11.20;75.05;97866.25;104892;1270;61044;-29
2022/04/23 10:21:42;;;;;;;;;;;;;;;11.46;74.52;97862.39;104878;1270;62118;-30
2022/04/23 10:24:32;;;;;;;9.70;5.10;;;;;;;11.37;74.21;97863.77;104638;1271;76299;-30
2022/04/23 10:27:07;;;;;;;5.90;4.50;;;;;;;11.15;74.27;97866.11;105159;1270;76413;-32
2022/04/23 10:29:36;;;;;;;8.80;5.30;;;;;;;10.92;74.29;97865.66;105063;1271;73268;-30
2022/04/23 10:32:11;;;;;;;9.40;2.80;;;;;;;10.74;75.31;97870.34;104770;1273;64151;-31
2022/04/23 10:34:41;;;;;;;7.90;3.80;;;;;;;11.27;74.75;97871.52;104741;1271;61131;-30
2022/04/23 10:37:15;;;;;;;9.30;5.00;;;;;;;11.78;73.85;97872.79;104771;1270;75018;-30
2022/04/23 10:39:53;;;;;;;10.40;5.40;;;;;;;11.82;73.16;97873.90;104757;1271;76273;-30
2022/04/23 10:42:23;;;;;;;11.00;4.60;;;;;;;11.57;72.75;97873.91;104662;1272;74485;-30
2022/04/23 10:44:55;;;;;;;13.10;4.70;;;;;;;11.03;74.15;97873.55;104667;1273;61805;-31
2022/04/23 10:47:33;;;;;;;8.50;4.00;;;;;;;10.88;75.57;97871.73;104662;1271;61138;-30
2022/04/23 10:50:25;;;;;;;8.60;4.10;;;;;;;10.74;75.98;97870.86;104710;1270;75321;-30
2022/04/23 10:52:55;;;;;;;13.10;4.90;;;;;;;11.07;75.36;97871.23;104979;1270;74998;-31
2022/04/23 10:55:31;;;;;;;18.10;4.80;;;;;;;11.20;74.76;97868.05;104715;1270;74841;-30
2022/04/23 10:58:19;;;;;;;16.90;5.50;;;;;;;11.05;74.77;97875.79;104737;1272;61167;-30
2022/04/23 11:00:48;;;;;;;12.10;5.50;;;;;;;10.79;75.53;97872.48;104918;1270;61058;-28
2022/04/23 11:03:26;;;;;;;10.40;4.00;;;;;;;10.61;75.73;97874.34;104988;1270;75491;-28
2022/04/23 11:14:39;;;;;;;10.60;5.50;;;;;;;10.83;75.88;97875.88;104871;1270;61983;-29
2022/04/23 11:17:23;;;;;;;10.10;3.30;;;;;;;10.66;76.02;97877.61;104721;1271;75506;-29
2022/04/23 11:19:53;;;;;;;7.50;4.10;;;;;;;10.90;74.99;97878.71;104774;1271;76349;-29
2022/04/23 11:22:22;;;;;;;10.90;5.40;;;;;;;11.12;74.14;97878.87;104831;1271;72072;-29
2022/04/23 11:24:54;;;;;;;13.40;5.50;;;;;;;10.94;73.70;97874.30;104827;1270;61163;-29
2022/04/23 11:27:24;;;;;;;18.50;6.20;;;;;;;10.76;74.67;97875.58;105006;1270;61145;-29
2022/04/23 11:29:53;;;;;;;17.50;6.80;;;;;;;10.57;75.78;97876.37;105017;1270;74292;-28
2022/04/23 11:32:27;;;;;;;11.90;4.50;;;;;;;10.44;75.97;97873.73;104777;1271;75103;-29
2022/04/23 11:35:01;;;;;;;16.70;5.90;;;;;;;10.81;75.13;97871.54;104747;1271;74381;-29
2022/04/23 11:37:34;;;;;;;15.50;6.70;;;;;;;11.03;74.41;97871.27;104687;1270;61326;-29
2022/04/23 11:40:12;;;;;;;13.10;5.70;;;;;;;10.88;75.09;97870.66;104706;1271;61112;-30
2022/04/23 11:42:46;;;;;;;11.90;5.80;;;;;;;10.61;75.92;97875.66;104603;1271;75511;-30
2022/04/23 11:45:20;;;;;;;14.30;5.20;;;;;;;10.31;77.17;97879.98;104693;1270;76046;-29
2022/04/23 11:47:49;;;;;;;12.40;5.20;;;;;;;10.45;77.30;97876.05;104903;1270;74326;-28
2022/04/23 11:50:21;;;;;;;11.20;5.10;;;;;;;10.96;76.05;97871.83;104901;1270;61078;-31
2022/04/23 11:52:59;;;;;;;9.60;4.70;;;;;;;10.98;75.71;97873.15;104896;1270;61461;-31
2022/04/23 11:55:30;;;;;;;9.10;5.40;;;;;;;10.76;76.29;97873.48;104825;1271;75522;-31
2022/04/23 11:58:00;;;;;;;13.70;5.90;;;;;;;10.47;77.55;97879.98;104930;1271;76478;-27
2022/04/23 12:00:40;;;;;;;8.30;3.60;;;;;;;10.17;79.18;97877.30;104766;1271;74472;-32
2022/04/23 12:03:08;;;;;;;11.00;5.80;;;;;;;10.42;78.92;97876.15;104965;1270;61214;-31
2022/04/23 12:05:38;;;;;;;7.50;5.40;;;;;;;10.65;78.02;97878.35;104964;1270;61111;-30
2022/04/23 12:08:19;;;;;;;12.20;5.90;;;;;;;10.59;78.07;97879.66;104958;1270;75610;-30
2022/04/23 12:10:48;;;;;;;10.00;6.00;;;;;;;10.16;80.09;97880.91;104773;1271;74963;-30